Time;durP1;ratioP1;P1;durP2;ratioP2;P2;SDS_P1;SDS_P2;PMS_P1;PMS_P2;Temp;Humidity;BMP_temperature;BMP_pressure;BME280_temperature;BME280_humidity;BME280_pressure;Samples;Min_cycle;Max_cycle;Signal;HPM_P1;HPM_P2
2022/01/03 00:00:11;;;;;;;1.95;0.20;;;8.50;99.90;;;;;;5134379;28;20177;-70
2022/01/03 00:02:39;;;;;;;1.73;0.20;;;8.60;99.90;;;;;;5135025;28;20123;-71
2022/01/03 00:05:05;;;;;;;3.17;0.30;;;8.80;99.90;;;;;;5116580;28;20050;-70
2022/01/03 00:07:35;;;;;;;3.13;0.30;;;8.50;99.90;;;;;;5134338;28;20491;-70
2022/01/03 00:10:03;;;;;;;3.42;0.30;;;8.50;99.90;;;;;;5099967;28;20092;-70
2022/01/03 00:12:30;;;;;;;2.25;0.68;;;8.50;99.90;;;;;;5136051;27;20093;-70
2022/01/03 00:14:56;;;;;;;2.10;0.30;;;8.70;99.90;;;;;;5138439;27;20047;-73
2022/01/03 00:17:22;;;;;;;2.20;0.57;;;8.50;99.90;;;;;;5120232;27;20043;-70
2022/01/03 00:19:49;;;;;;;1.33;0.40;;;8.60;99.90;;;;;;5119966;27;20124;-68
2022/01/03 00:22:20;;;;;;;4.40;0.63;;;8.50;99.90;;;;;;5103310;27;20135;-69
2022/01/03 00:24:56;;;;;;;3.33;0.50;;;8.50;99.90;;;;;;5138351;27;20043;-69
2022/01/03 00:27:24;;;;;;;2.47;0.70;;;8.50;99.90;;;;;;5121033;27;20066;-69
2022/01/03 00:29:51;;;;;;;2.45;0.60;;;8.70;99.90;;;;;;5085735;27;20103;-69
2022/01/03 00:32:18;;;;;;;5.00;0.77;;;8.80;99.90;;;;;;5119853;27;20083;-69
2022/01/03 00:34:45;;;;;;;4.85;0.77;;;8.60;99.90;;;;;;5138725;27;20395;-69
2022/01/03 00:37:11;;;;;;;4.95;1.25;;;8.80;99.90;;;;;;5119804;27;20043;-69
2022/01/03 00:39:37;;;;;;;4.65;0.80;;;8.90;99.90;;;;;;5119972;27;20051;-68
2022/01/03 00:42:04;;;;;;;3.90;1.00;;;8.70;99.90;;;;;;5138010;27;20080;-68
2022/01/03 00:44:30;;;;;;;6.43;1.00;;;8.60;99.90;;;;;;5102858;27;20047;-68
2022/01/03 00:46:57;;;;;;;6.05;0.90;;;9.00;99.90;;;;;;5119509;27;20502;-68
2022/01/03 00:49:23;;;;;;;7.40;1.25;;;9.10;99.90;;;;;;5103247;27;20046;-70
2022/01/03 00:51:49;;;;;;;6.32;1.17;;;8.90;99.90;;;;;;5120112;27;20054;-72
2022/01/03 00:54:14;;;;;;;7.30;1.00;;;9.20;99.90;;;;;;5137704;27;20043;-69
2022/01/03 00:56:46;;;;;;;8.70;1.20;;;9.00;99.90;;;;;;5085316;27;20125;-69
2022/01/03 00:59:15;;;;;;;8.15;1.23;;;9.00;99.90;;;;;;5138285;27;20126;-69
2022/01/03 01:01:48;;;;;;;8.30;1.15;;;9.10;99.90;;;;;;5138301;27;20088;-69
2022/01/03 01:04:17;;;;;;;9.57;1.50;;;9.40;99.90;;;;;;5137634;27;20035;-70
2022/01/03 01:06:42;;;;;;;6.40;1.20;;;9.10;99.90;;;;;;5137493;27;20050;-69
2022/01/03 01:09:12;;;;;;;9.35;1.08;;;9.50;99.90;;;;;;5120025;27;20118;-69
2022/01/03 01:11:43;;;;;;;9.20;1.13;;;9.10;99.90;;;;;;5119331;27;20112;-68
2022/01/03 01:14:09;;;;;;;7.70;0.80;;;9.10;99.90;;;;;;5119735;27;20043;-70
2022/01/03 01:16:35;;;;;;;9.13;1.02;;;9.20;99.90;;;;;;5137065;27;20514;-71
2022/01/03 01:19:03;;;;;;;6.88;1.30;;;9.40;99.90;;;;;;5137337;27;20085;-70
2022/01/03 01:21:29;;;;;;;6.65;1.00;;;9.40;99.90;;;;;;5119149;27;20130;-69
2022/01/03 01:23:56;;;;;;;5.88;0.98;;;9.40;99.90;;;;;;5136444;27;20126;-69
2022/01/03 01:29:08;;;;;;;11.27;1.40;;;9.30;99.90;;;;;;5137044;27;20119;-68
2022/01/03 01:31:44;;;;;;;12.15;1.40;;;9.30;99.90;;;;;;5101781;27;20039;-69
2022/01/03 01:34:15;;;;;;;7.55;1.40;;;9.40;99.90;;;;;;5137627;27;20383;-69
2022/01/03 01:36:43;;;;;;;10.27;1.02;;;9.60;99.90;;;;;;5118629;27;20042;-71
2022/01/03 01:39:10;;;;;;;12.00;2.20;;;9.50;99.90;;;;;;5118796;27;20051;-70
2022/01/03 01:41:42;;;;;;;12.52;1.25;;;9.30;99.90;;;;;;5101874;27;20054;-73
2022/01/03 01:44:09;;;;;;;6.22;1.67;;;9.40;99.90;;;;;;5119597;27;20047;-72
2022/01/03 01:46:46;;;;;;;9.75;1.80;;;9.40;99.90;;;;;;5101116;27;20051;-73
2022/01/03 01:49:17;;;;;;;8.35;1.38;;;9.30;99.90;;;;;;5136728;27;20050;-71
2022/01/03 01:51:46;;;;;;;12.55;1.15;;;9.60;99.90;;;;;;5136667;27;20133;-72
2022/01/03 01:54:15;;;;;;;9.05;1.20;;;9.50;99.90;;;;;;5118337;27;20054;-70
2022/01/03 01:57:06;;;;;;;8.27;1.38;;;9.40;99.90;;;;;;5117869;27;20541;-70
2022/01/03 01:59:42;;;;;;;11.63;1.23;;;9.40;99.90;;;;;;5137330;27;20050;-69
2022/01/03 02:02:11;;;;;;;8.93;1.17;;;9.40;99.90;;;;;;5136670;27;20054;-67
2022/01/03 02:04:52;;;;;;;8.50;1.25;;;9.30;99.90;;;;;;5136403;27;20053;-70
2022/01/03 02:07:45;;;;;;;8.93;1.60;;;8.50;99.90;;;;;;5136425;27;20083;-73
2022/01/03 02:10:14;;;;;;;11.45;1.55;;;9.40;99.90;;;;;;5136545;27;20039;-69
2022/01/03 02:12:49;;;;;;;9.27;1.27;;;9.40;99.90;;;;;;5136231;27;20050;-75
2022/01/03 02:15:17;;;;;;;8.63;1.80;;;9.60;99.90;;;;;;5117887;27;20099;-73
2022/01/03 02:17:45;;;;;;;6.85;1.38;;;9.30;99.90;;;;;;5136140;27;20054;-71
2022/01/03 02:20:14;;;;;;;9.15;1.30;;;10.20;99.90;;;;;;5135747;27;20039;-71
2022/01/03 02:22:41;;;;;;;10.57;1.45;;;9.30;99.90;;;;;;5136071;27;20051;-70
2022/01/03 02:25:09;;;;;;;13.85;1.98;;;9.30;99.90;;;;;;5135975;27;20051;-70
2022/01/03 02:27:36;;;;;;;15.48;1.70;;;9.30;99.90;;;;;;5136205;27;20050;-72
2022/01/03 02:30:07;;;;;;;9.55;1.58;;;9.30;99.90;;;;;;5135769;27;20043;-70
2022/01/03 02:32:33;;;;;;;13.93;1.70;;;9.30;99.90;;;;;;5117438;27;20045;-69
2022/01/03 02:34:59;;;;;;;9.30;1.20;;;9.50;99.90;;;;;;5117053;27;20039;-71
2022/01/03 02:37:25;;;;;;;9.85;1.70;;;9.40;99.90;;;;;;5135186;27;20390;-70
2022/01/03 02:39:52;;;;;;;9.82;1.75;;;9.30;99.90;;;;;;5135355;27;20571;-69
2022/01/03 02:42:23;;;;;;;11.85;1.50;;;9.40;99.90;;;;;;5117539;27;20491;-69
2022/01/03 02:45:13;;;;;;;13.40;1.70;;;9.50;99.90;;;;;;5117513;27;20051;-69
2022/01/03 02:47:41;;;;;;;13.30;1.40;;;9.50;99.90;;;;;;5135653;27;20109;-70
2022/01/03 02:50:09;;;;;;;14.93;2.13;;;9.40;99.90;;;;;;5117115;27;20039;-72
2022/01/03 02:52:35;;;;;;;13.50;1.83;;;9.50;99.90;;;;;;5135730;27;20448;-70
2022/01/03 02:55:00;;;;;;;10.70;1.67;;;9.60;99.90;;;;;;5100134;27;20418;-70
2022/01/03 02:57:33;;;;;;;14.52;1.80;;;9.50;99.90;;;;;;5135563;27;20055;-72
2022/01/03 02:59:59;;;;;;;13.95;1.83;;;9.50;99.90;;;;;;5117532;27;20180;-72
2022/01/03 03:02:27;;;;;;;10.05;1.90;;;9.60;99.90;;;;;;5135708;27;20143;-72
2022/01/03 03:04:59;;;;;;;10.80;1.70;;;9.50;99.90;;;;;;5117753;27;20122;-70
2022/01/03 03:07:27;;;;;;;12.30;1.50;;;9.40;99.90;;;;;;5135537;27;20119;-70
2022/01/03 03:09:53;;;;;;;10.55;1.90;;;9.50;99.90;;;;;;5135081;27;20051;-73
2022/01/03 03:12:20;;;;;;;12.82;1.95;;;9.50;99.90;;;;;;5135108;27;20080;-73
2022/01/03 03:14:46;;;;;;;16.83;1.60;;;9.40;99.90;;;;;;5116904;27;20055;-70
2022/01/03 03:17:11;;;;;;;13.13;2.20;;;9.70;99.90;;;;;;5116760;27;20125;-68
2022/01/03 03:19:55;;;;;;;12.48;1.70;;;9.40;99.90;;;;;;5135027;27;20126;-69
2022/01/03 03:22:22;;;;;;;14.52;1.92;;;9.50;99.90;;;;;;5135042;27;20039;-69
2022/01/03 03:24:49;;;;;;;12.77;1.67;;;9.50;99.90;;;;;;5099788;27;20047;-69
2022/01/03 03:27:15;;;;;;;11.73;1.75;;;9.60;99.90;;;;;;5116762;27;20047;-70
2022/01/03 03:29:46;;;;;;;14.48;1.75;;;9.60;99.90;;;;;;5134509;27;20042;-70
2022/01/03 03:32:12;;;;;;;12.70;1.55;;;9.50;99.90;;;;;;5116615;27;20058;-72
2022/01/03 03:34:38;;;;;;;12.00;1.33;;;9.40;99.90;;;;;;5116674;27;20043;-70
2022/01/03 03:37:04;;;;;;;13.20;1.90;;;9.40;99.90;;;;;;5135524;27;20094;-69
2022/01/03 03:39:31;;;;;;;13.57;1.95;;;9.40;99.90;;;;;;5134786;27;20048;-71
2022/01/03 03:41:57;;;;;;;14.43;1.90;;;9.60;99.90;;;;;;5116430;28;20054;-71
2022/01/03 03:44:23;;;;;;;12.13;1.23;;;9.30;99.90;;;;;;5134629;27;20179;-72
2022/01/03 03:46:48;;;;;;;15.30;2.08;;;9.50;99.90;;;;;;5116327;27;20043;-72
2022/01/03 03:49:14;;;;;;;14.05;1.83;;;9.40;99.90;;;;;;5099208;27;20050;-71
2022/01/03 03:51:41;;;;;;;12.23;1.83;;;9.40;99.90;;;;;;5082684;28;20117;-70
2022/01/03 03:54:07;;;;;;;17.05;2.58;;;9.40;99.90;;;;;;5134553;28;20377;-70
2022/01/03 03:56:34;;;;;;;16.00;2.58;;;9.30;99.90;;;;;;5135329;28;20065;-72
2022/01/03 03:59:00;;;;;;;9.07;1.77;;;9.70;99.90;;;;;;5134488;28;20047;-70
2022/01/03 04:01:25;;;;;;;13.77;1.80;;;9.30;99.90;;;;;;5134500;28;20050;-70
2022/01/03 04:03:53;;;;;;;15.15;2.65;;;9.60;99.90;;;;;;5134943;28;20089;-69
2022/01/03 04:06:19;;;;;;;9.25;1.63;;;9.30;99.90;;;;;;5117147;28;20078;-71
2022/01/03 04:08:46;;;;;;;14.27;1.48;;;9.50;99.90;;;;;;5134445;28;20047;-69
2022/01/03 04:11:15;;;;;;;14.30;2.20;;;9.20;99.90;;;;;;5134242;28;20050;-69
2022/01/03 04:13:41;;;;;;;15.18;2.50;;;9.40;99.90;;;;;;5134322;28;20051;-71
2022/01/03 04:16:08;;;;;;;13.50;2.72;;;9.10;99.90;;;;;;5134389;28;20516;-72
2022/01/03 04:18:33;;;;;;;12.63;1.92;;;9.20;99.90;;;;;;5134276;28;20062;-70
2022/01/03 04:21:00;;;;;;;12.23;1.80;;;9.50;99.90;;;;;;5099208;28;20035;-71
2022/01/03 04:23:25;;;;;;;16.23;2.25;;;9.20;99.90;;;;;;5134250;28;20447;-70
2022/01/03 04:25:51;;;;;;;13.10;2.10;;;9.10;99.90;;;;;;5134222;28;20191;-71
2022/01/03 04:28:18;;;;;;;18.75;2.10;;;9.20;99.90;;;;;;5116350;28;20372;-68
2022/01/03 04:30:44;;;;;;;13.18;1.60;;;9.10;99.90;;;;;;5116528;28;20371;-69
2022/01/03 04:33:10;;;;;;;20.35;2.63;;;9.10;99.90;;;;;;5116434;28;20047;-69
2022/01/03 04:35:36;;;;;;;10.95;1.98;;;9.40;99.90;;;;;;5134115;28;20043;-71
2022/01/03 04:38:02;;;;;;;18.17;2.22;;;9.10;99.90;;;;;;5133820;28;20048;-69
2022/01/03 04:40:28;;;;;;;12.75;2.03;;;8.90;99.90;;;;;;5134105;28;20040;-69
2022/01/03 04:42:54;;;;;;;9.48;2.30;;;9.10;99.90;;;;;;5134073;28;20039;-68
2022/01/03 04:45:20;;;;;;;15.98;2.28;;;9.00;99.90;;;;;;5134915;28;20049;-70
2022/01/03 04:47:46;;;;;;;11.50;1.85;;;9.10;99.90;;;;;;5115437;28;20546;-69
2022/01/03 04:50:12;;;;;;;12.02;1.77;;;9.20;99.90;;;;;;5115696;28;20127;-69
2022/01/03 04:52:38;;;;;;;13.75;1.75;;;9.10;99.90;;;;;;5115674;28;20058;-69
2022/01/03 04:55:04;;;;;;;11.00;2.20;;;9.20;99.90;;;;;;5115658;28;20051;-68
2022/01/03 04:57:31;;;;;;;15.23;2.45;;;9.20;99.90;;;;;;5133729;28;20128;-68
2022/01/03 04:59:56;;;;;;;15.30;2.30;;;9.50;99.90;;;;;;5135862;27;20479;-69
2022/01/03 05:02:22;;;;;;;10.60;1.80;;;9.20;99.90;;;;;;5119131;27;20087;-70
2022/01/03 05:04:48;;;;;;;16.60;1.92;;;9.40;99.90;;;;;;5119413;27;20047;-68
2022/01/03 05:07:14;;;;;;;13.40;2.08;;;9.20;99.90;;;;;;5119374;27;20386;-69
2022/01/03 05:09:40;;;;;;;16.02;1.65;;;9.20;99.90;;;;;;5137422;27;20043;-68
2022/01/03 05:12:06;;;;;;;12.02;2.78;;;9.50;99.90;;;;;;5119110;27;20039;-68
2022/01/03 05:14:31;;;;;;;18.10;2.60;;;9.20;99.90;;;;;;5119095;27;20066;-71
2022/01/03 05:16:57;;;;;;;16.40;2.72;;;9.30;99.90;;;;;;5102047;27;20047;-69
2022/01/03 05:19:24;;;;;;;15.75;2.35;;;9.30;99.90;;;;;;5119183;27;20055;-69
2022/01/03 05:21:51;;;;;;;17.80;2.53;;;9.30;99.90;;;;;;5118979;27;20046;-69
2022/01/03 05:24:18;;;;;;;15.35;2.08;;;9.10;99.90;;;;;;5138021;27;20122;-69
2022/01/03 05:26:43;;;;;;;17.65;2.38;;;9.50;99.90;;;;;;5137181;27;20047;-69
2022/01/03 05:29:09;;;;;;;17.33;2.78;;;9.20;99.90;;;;;;5137556;27;20050;-67
2022/01/03 05:31:35;;;;;;;9.38;2.38;;;9.40;99.90;;;;;;5118893;27;20155;-69
2022/01/03 05:34:01;;;;;;;10.90;2.00;;;9.40;99.90;;;;;;5118719;27;20118;-70
2022/01/03 05:36:28;;;;;;;13.73;2.47;;;9.60;99.90;;;;;;5137790;27;20486;-71
2022/01/03 05:38:54;;;;;;;17.35;2.30;;;9.20;99.90;;;;;;5118507;27;20134;-71
2022/01/03 05:41:20;;;;;;;14.90;2.42;;;9.50;99.90;;;;;;5101477;27;20119;-71
2022/01/03 05:43:46;;;;;;;12.57;1.80;;;9.40;99.90;;;;;;5136861;27;20047;-71
2022/01/03 05:46:14;;;;;;;23.42;3.03;;;9.30;99.90;;;;;;5119132;27;20050;-70
2022/01/03 05:48:40;;;;;;;14.65;2.42;;;9.50;99.90;;;;;;5136799;27;20119;-69
2022/01/03 05:51:06;;;;;;;16.02;2.33;;;9.10;99.90;;;;;;5136656;27;20483;-70
2022/01/03 05:53:32;;;;;;;16.77;2.28;;;9.50;99.90;;;;;;5118365;27;20485;-69
2022/01/03 05:55:59;;;;;;;22.52;2.88;;;9.20;99.90;;;;;;5136382;27;20050;-70
2022/01/03 05:58:24;;;;;;;17.27;3.38;;;9.20;99.90;;;;;;5136362;27;20051;-68
2022/01/03 06:00:50;;;;;;;14.65;2.40;;;9.20;99.90;;;;;;5118258;27;20077;-68
2022/01/03 06:03:20;;;;;;;16.25;2.92;;;9.10;99.90;;;;;;5137032;27;20463;-69
2022/01/03 06:08:21;;;;;;;14.10;3.05;;;9.20;99.90;;;;;;5119880;27;20147;-68
2022/01/03 06:10:47;;;;;;;16.65;2.35;;;9.10;99.90;;;;;;5136099;27;20492;-68
2022/01/03 06:13:13;;;;;;;14.95;2.30;;;9.30;99.90;;;;;;5101240;27;20372;-68
2022/01/03 06:15:40;;;;;;;16.23;2.85;;;9.10;99.90;;;;;;5117988;27;20048;-68
2022/01/03 06:18:10;;;;;;;16.45;2.33;;;9.90;99.90;;;;;;5136201;27;20395;-69
2022/01/03 06:20:38;;;;;;;18.85;2.83;;;9.30;99.90;;;;;;5136972;27;20049;-68
2022/01/03 06:23:04;;;;;;;13.98;2.58;;;9.10;99.90;;;;;;5136036;27;20039;-69
2022/01/03 06:25:30;;;;;;;15.23;3.33;;;9.10;99.90;;;;;;5136001;27;20057;-68
2022/01/03 06:27:55;;;;;;;15.18;2.72;;;9.10;99.90;;;;;;5135947;27;20054;-67
2022/01/03 06:30:21;;;;;;;19.40;2.90;;;9.70;99.90;;;;;;5083654;27;20494;-70
2022/01/03 06:32:47;;;;;;;15.15;2.42;;;9.20;99.90;;;;;;5135856;27;20039;-68
2022/01/03 06:35:13;;;;;;;15.77;2.92;;;9.20;99.90;;;;;;5100581;27;20466;-69
2022/01/03 06:37:39;;;;;;;19.08;2.47;;;9.10;99.90;;;;;;5135860;27;20043;-68
2022/01/03 06:40:06;;;;;;;14.95;2.42;;;9.10;99.90;;;;;;5135455;27;20043;-68
2022/01/03 06:42:32;;;;;;;19.10;3.17;;;9.20;99.90;;;;;;5117348;27;20058;-69
2022/01/03 06:45:01;;;;;;;17.65;3.00;;;9.20;99.90;;;;;;5117387;27;20058;-70
2022/01/03 06:47:27;;;;;;;16.00;2.55;;;9.10;99.90;;;;;;5135682;27;20050;-69
2022/01/03 06:49:53;;;;;;;17.50;3.28;;;9.20;99.90;;;;;;5083988;27;20043;-68
2022/01/03 06:52:19;;;;;;;12.77;2.42;;;9.40;99.90;;;;;;5135529;27;20047;-68
2022/01/03 06:54:45;;;;;;;18.25;2.97;;;9.20;99.90;;;;;;5135494;27;20493;-67
2022/01/03 06:57:11;;;;;;;14.32;2.60;;;9.20;99.90;;;;;;5099778;27;20138;-69
2022/01/03 06:59:37;;;;;;;13.02;2.33;;;9.10;99.90;;;;;;5135362;27;20083;-69
2022/01/03 07:02:03;;;;;;;18.50;2.30;;;8.90;99.90;;;;;;5116879;27;20401;-68
2022/01/03 07:04:29;;;;;;;13.00;2.80;;;9.10;99.90;;;;;;5117554;27;20043;-67
2022/01/03 07:06:55;;;;;;;13.20;2.67;;;9.10;99.90;;;;;;5099958;27;20049;-68
2022/01/03 07:09:21;;;;;;;12.25;2.30;;;9.20;99.90;;;;;;5135100;27;20051;-68
2022/01/03 07:11:47;;;;;;;19.52;3.10;;;9.20;99.90;;;;;;5116587;27;20054;-67
2022/01/03 07:19:32;;;;;;;18.77;2.55;;;9.40;99.90;;;;;;5135290;27;20051;-68
2022/01/03 07:22:00;;;;;;;18.90;2.90;;;9.20;99.90;;;;;;5134428;27;20035;-68
2022/01/03 07:24:26;;;;;;;21.75;3.15;;;9.20;99.90;;;;;;5134907;27;20131;-68
2022/01/03 07:26:52;;;;;;;24.05;3.65;;;9.10;99.90;;;;;;5100165;27;20047;-70
2022/01/03 07:29:18;;;;;;;18.13;2.72;;;9.10;99.90;;;;;;5083623;27;20490;-68
2022/01/03 07:31:43;;;;;;;16.55;2.85;;;9.20;99.90;;;;;;5134724;27;20047;-69
2022/01/03 07:34:09;;;;;;;18.77;3.15;;;9.20;99.90;;;;;;5099781;27;20391;-68
2022/01/03 07:36:35;;;;;;;15.55;2.22;;;9.40;99.90;;;;;;5116420;27;20039;-67
2022/01/03 07:39:00;;;;;;;17.27;2.97;;;9.20;99.90;;;;;;5116888;27;20058;-68
2022/01/03 07:41:26;;;;;;;18.48;2.80;;;9.10;99.90;;;;;;5116495;27;20039;-68
2022/01/03 07:43:52;;;;;;;22.95;2.85;;;9.20;99.90;;;;;;5116471;27;20134;-67
2022/01/03 07:46:17;;;;;;;22.52;3.53;;;9.20;99.90;;;;;;5134658;27;20062;-67
2022/01/03 07:48:43;;;;;;;16.98;2.78;;;9.20;99.90;;;;;;5099304;28;20047;-66
2022/01/03 07:51:09;;;;;;;17.25;3.10;;;9.20;99.90;;;;;;5135356;27;20035;-68
2022/01/03 07:53:35;;;;;;;16.83;2.35;;;9.40;99.90;;;;;;5116498;28;20127;-67
2022/01/03 07:56:04;;;;;;;16.15;2.83;;;9.30;99.90;;;;;;5099605;28;20379;-68
2022/01/03 07:58:30;;;;;;;19.50;2.83;;;9.20;99.90;;;;;;5116067;28;20112;-66
2022/01/03 08:00:56;;;;;;;18.25;2.97;;;9.30;99.90;;;;;;5134611;28;20039;-68
2022/01/03 08:03:22;;;;;;;19.33;2.85;;;9.30;99.90;;;;;;5102579;28;20047;-66
2022/01/03 08:05:49;;;;;;;14.95;3.17;;;9.20;99.90;;;;;;5100267;28;20459;-72
2022/01/03 08:08:15;;;;;;;17.35;2.42;;;9.30;99.90;;;;;;5116796;28;20055;-67
2022/01/03 08:10:42;;;;;;;14.55;2.42;;;9.20;99.90;;;;;;5135033;28;20043;-67
2022/01/03 08:13:08;;;;;;;16.95;3.10;;;9.20;99.90;;;;;;5134479;28;20050;-66
2022/01/03 08:15:34;;;;;;;17.65;2.90;;;9.10;99.90;;;;;;5116365;28;20043;-68
2022/01/03 08:18:00;;;;;;;20.05;2.15;;;9.30;99.90;;;;;;5099406;28;20043;-68
2022/01/03 08:20:25;;;;;;;15.90;2.80;;;9.30;99.90;;;;;;5117031;28;20134;-67
2022/01/03 08:22:52;;;;;;;17.15;3.08;;;9.40;99.90;;;;;;5137453;28;20493;-68
2022/01/03 08:25:18;;;;;;;12.52;2.30;;;9.40;99.90;;;;;;5133166;28;20509;-70
2022/01/03 08:27:44;;;;;;;14.00;2.67;;;9.50;99.90;;;;;;5113746;28;20044;-70
2022/01/03 08:30:09;;;;;;;17.42;2.30;;;10.10;99.90;;;;;;5132311;28;20043;-70
2022/01/03 08:32:35;;;;;;;15.10;2.50;;;9.20;99.90;;;;;;5113532;27;20372;-68
2022/01/03 08:35:01;;;;;;;15.82;2.63;;;9.40;99.90;;;;;;5135303;27;20441;-69
2022/01/03 08:37:27;;;;;;;15.68;2.60;;;9.30;99.90;;;;;;5136214;27;20035;-68
2022/01/03 08:39:53;;;;;;;13.82;1.92;;;9.40;99.90;;;;;;5136017;27;20379;-68
2022/01/03 08:42:20;;;;;;;16.58;2.38;;;9.20;99.90;;;;;;5117677;27;20039;-65
2022/01/03 08:44:47;;;;;;;17.92;2.58;;;9.40;99.90;;;;;;5135556;27;20047;-69
2022/01/03 08:47:12;;;;;;;16.90;2.75;;;9.50;99.90;;;;;;5136409;27;20527;-69
2022/01/03 08:49:38;;;;;;;14.00;2.45;;;9.40;99.90;;;;;;5135101;27;20051;-70
2022/01/03 08:52:05;;;;;;;14.90;1.77;;;9.50;99.90;;;;;;5136155;27;20051;-70
2022/01/03 08:54:31;;;;;;;19.17;2.47;;;9.40;99.90;;;;;;5100944;27;20046;-71
2022/01/03 08:56:57;;;;;;;13.48;2.30;;;9.50;99.90;;;;;;5135666;27;20059;-70
2022/01/03 08:59:25;;;;;;;18.00;3.08;;;9.50;99.90;;;;;;5100550;27;20142;-70
2022/01/03 09:01:50;;;;;;;12.65;2.17;;;9.40;99.90;;;;;;5136909;27;20047;-70
2022/01/03 09:04:16;;;;;;;22.73;2.88;;;9.50;99.90;;;;;;5135335;27;20386;-73
2022/01/03 09:06:42;;;;;;;13.80;1.90;;;9.70;99.90;;;;;;5116821;27;20561;-70
2022/01/03 09:09:07;;;;;;;15.13;2.78;;;9.60;99.90;;;;;;5116538;27;20095;-69
2022/01/03 09:11:33;;;;;;;11.07;2.78;;;9.50;99.90;;;;;;5134793;27;20099;-69
2022/01/03 09:13:59;;;;;;;17.55;2.75;;;9.60;99.90;;;;;;5117393;27;20046;-69
2022/01/03 09:16:25;;;;;;;13.95;1.98;;;9.90;99.90;;;;;;5135047;27;20054;-70
2022/01/03 09:18:51;;;;;;;13.50;2.40;;;9.70;99.90;;;;;;5116575;27;20477;-68
2022/01/03 09:21:17;;;;;;;17.60;2.17;;;9.60;99.90;;;;;;5116668;27;20047;-67
2022/01/03 09:23:47;;;;;;;14.18;2.78;;;9.90;99.90;;;;;;5115994;27;20039;-69
2022/01/03 09:28:58;;;;;;;13.20;2.15;;;9.70;99.90;;;;;;5116874;27;20395;-70
2022/01/03 09:31:28;;;;;;;13.77;1.92;;;9.20;99.90;;;;;;5134039;27;20110;-69
2022/01/03 09:33:56;;;;;;;11.52;2.08;;;9.70;99.90;;;;;;5133889;27;20047;-69
2022/01/03 09:36:24;;;;;;;15.32;2.17;;;10.60;99.90;;;;;;5135010;27;20035;-69
2022/01/03 09:38:50;;;;;;;12.20;2.28;;;9.60;99.90;;;;;;5133918;27;20054;-69
2022/01/03 09:41:22;;;;;;;13.55;2.17;;;9.70;99.90;;;;;;5116026;27;20071;-68
2022/01/03 09:44:08;;;;;;;18.65;2.65;;;9.70;99.90;;;;;;5115964;27;20141;-68
2022/01/03 09:46:42;;;;;;;14.70;2.08;;;9.80;99.90;;;;;;5134860;27;20132;-68
2022/01/03 09:49:10;;;;;;;12.88;1.98;;;10.00;99.90;;;;;;5116647;27;20126;-67
2022/01/03 09:51:38;;;;;;;14.30;1.88;;;9.80;99.90;;;;;;5134444;27;20035;-68
2022/01/03 09:54:07;;;;;;;14.07;2.08;;;9.70;99.90;;;;;;5133933;27;20100;-69
2022/01/03 09:56:35;;;;;;;16.77;2.83;;;9.80;99.90;;;;;;5115138;27;20344;-67
2022/01/03 09:59:03;;;;;;;16.50;2.17;;;9.70;99.90;;;;;;5134017;27;20055;-69
2022/01/03 10:01:30;;;;;;;15.48;2.08;;;9.70;99.90;;;;;;5134457;27;20096;-66
2022/01/03 10:03:56;;;;;;;14.07;2.53;;;10.00;99.90;;;;;;5116364;27;20526;-68
2022/01/03 10:06:24;;;;;;;14.70;2.45;;;9.80;99.90;;;;;;5098681;27;20479;-67
2022/01/03 10:08:50;;;;;;;13.63;1.92;;;9.80;99.90;;;;;;5133741;27;20125;-69
2022/01/03 10:11:18;;;;;;;15.45;2.25;;;10.10;99.90;;;;;;5115371;27;20464;-67
2022/01/03 10:13:43;;;;;;;12.57;1.65;;;10.10;99.90;;;;;;5098065;27;20131;-69
2022/01/03 10:16:09;;;;;;;10.27;1.73;;;9.90;99.90;;;;;;5133135;27;20512;-73
2022/01/03 10:18:35;;;;;;;13.80;1.92;;;9.90;99.90;;;;;;5133591;27;20050;-69
2022/01/03 10:21:03;;;;;;;11.75;2.08;;;9.90;99.90;;;;;;5115830;27;20055;-69
2022/01/03 10:23:29;;;;;;;10.90;1.77;;;9.90;99.90;;;;;;5133825;27;20046;-68
2022/01/03 10:26:16;;;;;;;13.57;2.40;;;10.00;99.90;;;;;;5133922;27;20082;-70
2022/01/03 10:28:43;;;;;;;11.38;2.45;;;10.00;99.90;;;;;;5134348;27;20039;-70
2022/01/03 10:31:20;;;;;;;15.50;2.85;;;10.30;99.90;;;;;;5132714;27;20051;-70
2022/01/03 10:33:48;;;;;;;15.38;2.90;;;10.10;99.90;;;;;;5133164;27;20493;-70
2022/01/03 10:36:28;;;;;;;13.90;2.30;;;10.10;99.90;;;;;;5114546;27;20039;-72
2022/01/03 10:38:55;;;;;;;14.20;2.58;;;10.00;99.90;;;;;;5097159;27;20046;-70
2022/01/03 10:41:23;;;;;;;12.38;2.25;;;10.40;99.90;;;;;;5097993;27;20043;-72
2022/01/03 10:43:50;;;;;;;16.05;2.33;;;10.10;99.90;;;;;;5132361;27;20384;-69
2022/01/03 10:46:28;;;;;;;15.10;2.85;;;10.60;99.90;;;;;;5133192;27;20039;-70
2022/01/03 10:49:19;;;;;;;11.82;1.63;;;10.10;99.90;;;;;;5098932;27;20158;-70
2022/01/03 10:51:45;;;;;;;13.40;1.92;;;10.10;99.90;;;;;;5132971;27;20035;-71
2022/01/03 10:54:13;;;;;;;14.75;2.78;;;10.20;99.90;;;;;;5114415;27;20047;-70
2022/01/03 10:56:43;;;;;;;15.15;2.42;;;10.20;99.90;;;;;;5096584;27;20054;-68
2022/01/03 10:59:25;;;;;;;13.70;1.92;;;10.50;99.90;;;;;;5135131;27;20051;-67
2022/01/03 11:01:56;;;;;;;16.27;2.72;;;10.10;99.90;;;;;;5117714;27;20075;-70
2022/01/03 11:04:31;;;;;;;11.18;2.28;;;10.20;99.90;;;;;;5117495;27;20090;-67
2022/01/03 11:10:43;;;;;;;13.98;2.15;;;10.20;99.90;;;;;;5117654;27;20059;-68
2022/01/03 11:13:06;;;;;;;14.63;1.75;;;10.10;99.90;;;;;;5135368;27;20051;-70
2022/01/03 11:15:31;;;;;;;13.73;2.10;;;10.20;99.90;;;;;;5100769;27;20054;-69
2022/01/03 11:18:12;;;;;;;15.10;1.98;;;10.00;99.90;;;;;;5135733;27;20043;-71
2022/01/03 11:20:39;;;;;;;17.23;2.45;;;10.20;99.90;;;;;;5100029;27;20051;-71
2022/01/03 11:23:05;;;;;;;10.63;2.42;;;10.10;99.90;;;;;;5138081;27;20051;-72
2022/01/03 11:25:34;;;;;;;14.10;2.58;;;10.40;99.90;;;;;;5138017;27;20075;-71
2022/01/03 11:28:01;;;;;;;13.48;2.65;;;10.10;99.90;;;;;;5119492;27;20163;-70
2022/01/03 11:30:27;;;;;;;17.60;2.58;;;10.10;99.90;;;;;;5117804;27;20054;-69
2022/01/03 11:32:53;;;;;;;10.63;2.38;;;10.10;99.90;;;;;;5083575;27;20051;-70
2022/01/03 11:35:19;;;;;;;13.35;2.13;;;10.10;99.90;;;;;;5102249;27;20119;-68
2022/01/03 11:37:47;;;;;;;20.75;2.65;;;10.10;99.90;;;;;;5139844;27;20475;-70
2022/01/03 11:40:14;;;;;;;11.25;2.30;;;10.20;99.90;;;;;;5135319;27;20070;-69
2022/01/03 11:42:42;;;;;;;13.10;2.13;;;10.20;99.90;;;;;;5136668;27;20509;-70
2022/01/03 11:45:08;;;;;;;14.30;2.38;;;10.20;99.90;;;;;;5117667;27;20054;-68
2022/01/03 11:47:36;;;;;;;19.25;3.63;;;10.30;99.90;;;;;;5136131;27;20051;-72
2022/01/03 11:50:04;;;;;;;10.43;2.03;;;10.30;99.90;;;;;;5116941;27;20043;-71
2022/01/03 11:52:31;;;;;;;14.63;2.25;;;10.30;99.90;;;;;;5136600;27;20172;-70
2022/01/03 11:54:57;;;;;;;17.35;2.90;;;10.20;99.90;;;;;;5119047;28;20046;-73
2022/01/03 11:57:56;;;;;;;13.40;2.75;;;10.20;99.90;;;;;;5084452;28;20071;-71
2022/01/03 12:05:51;;;;;;;13.85;2.00;;;10.30;99.90;;;;;;5135187;28;20066;-74
2022/01/03 12:08:26;;;;;;;13.55;2.35;;;10.30;99.90;;;;;;5137178;27;20039;-68
2022/01/03 12:10:52;;;;;;;10.63;1.65;;;10.30;99.90;;;;;;5139226;27;20050;-67
2022/01/03 12:13:20;;;;;;;13.65;1.67;;;10.60;99.90;;;;;;5139257;27;20035;-70
2022/01/03 12:15:46;;;;;;;13.57;2.28;;;10.40;99.90;;;;;;5104395;27;20050;-72
2022/01/03 12:18:29;;;;;;;12.55;1.90;;;10.60;99.90;;;;;;5120994;27;20043;-70
2022/01/03 12:20:55;;;;;;;15.52;1.73;;;10.40;99.90;;;;;;5138749;27;20051;-69
2022/01/03 12:23:40;;;;;;;8.98;1.60;;;10.40;99.90;;;;;;5138780;27;20638;-68
2022/01/03 12:26:17;;;;;;;12.23;1.83;;;10.40;99.90;;;;;;5104136;27;20126;-70
2022/01/03 12:29:01;;;;;;;11.43;2.42;;;10.50;99.90;;;;;;5138806;27;20035;-68
2022/01/03 12:31:27;;;;;;;8.85;1.73;;;10.40;99.90;;;;;;5103041;27;20046;-67
2022/01/03 12:34:17;;;;;;;15.48;1.92;;;10.40;99.90;;;;;;5120440;27;20069;-67
2022/01/03 12:37:12;;;;;;;14.85;2.33;;;10.40;99.90;;;;;;5139500;27;20050;-68
2022/01/03 12:40:03;;;;;;;11.27;1.95;;;10.50;99.90;;;;;;5140191;27;20081;-67
2022/01/03 12:42:52;;;;;;;10.00;2.28;;;10.30;99.90;;;;;;5138625;27;20126;-68
2022/01/03 12:45:29;;;;;;;15.93;2.00;;;10.30;99.90;;;;;;5138740;27;20054;-69
2022/01/03 12:48:18;;;;;;;10.20;2.15;;;10.40;99.90;;;;;;5138500;27;20043;-67
2022/01/03 12:50:53;;;;;;;12.98;1.85;;;10.40;99.90;;;;;;5138782;27;20043;-67
2022/01/03 12:53:28;;;;;;;12.30;1.83;;;10.40;99.90;;;;;;5137805;27;20070;-68
2022/01/03 12:56:05;;;;;;;14.40;2.40;;;10.70;99.90;;;;;;5138845;27;20125;-69
2022/01/03 12:58:32;;;;;;;11.13;2.10;;;10.40;99.90;;;;;;5119404;27;20055;-70
2022/01/03 13:01:00;;;;;;;14.05;2.55;;;10.40;99.90;;;;;;5119826;27;20055;-70
2022/01/03 13:03:47;;;;;;;12.88;2.05;;;10.40;99.90;;;;;;5120465;27;20059;-67
2022/01/03 13:06:21;;;;;;;13.40;2.20;;;10.60;99.90;;;;;;5137979;27;20051;-67
2022/01/03 13:08:56;;;;;;;12.55;2.22;;;10.50;99.90;;;;;;5120580;27;20047;-73
2022/01/03 13:11:31;;;;;;;11.55;1.80;;;10.50;99.90;;;;;;5119408;27;20043;-68
2022/01/03 13:14:09;;;;;;;10.50;1.55;;;10.70;99.90;;;;;;5119391;27;20126;-70